Time;durP1;ratioP1;P1;durP2;ratioP2;P2;SDS_P1;SDS_P2;PMS_P1;PMS_P2;Temp;Humidity;BMP_temperature;BMP_pressure;BME280_temperature;BME280_humidity;BME280_pressure;Samples;Min_cycle;Max_cycle;Signal;HPM_P1;HPM_P2
2023/12/14 00:01:45;;;;;;;83.57;37.00;;;8.80;98.90;;;;;;4999607;28;20145;-69
2023/12/14 00:04:11;;;;;;;77.53;37.08;;;8.80;98.90;;;;;;4990294;28;20029;-71
2023/12/14 00:06:37;;;;;;;76.57;34.50;;;8.80;98.90;;;;;;4993831;28;20064;-70
2023/12/14 00:09:03;;;;;;;90.88;37.90;;;8.80;98.90;;;;;;4997136;28;20455;-70
2023/12/14 00:11:29;;;;;;;83.85;37.03;;;8.80;98.90;;;;;;4979430;28;20125;-71
2023/12/14 00:13:54;;;;;;;77.55;37.78;;;8.80;98.90;;;;;;4999190;28;20021;-71
2023/12/14 00:16:20;;;;;;;76.10;37.38;;;8.80;98.90;;;;;;4998821;28;20045;-70
2023/12/14 00:18:46;;;;;;;80.32;36.50;;;8.80;98.90;;;;;;4985954;28;20033;-72
2023/12/14 00:21:11;;;;;;;77.40;36.50;;;8.80;99.00;;;;;;4997650;28;20034;-70
2023/12/14 00:23:37;;;;;;;78.88;37.42;;;8.80;99.00;;;;;;4981306;28;20037;-71
2023/12/14 00:26:03;;;;;;;77.10;36.38;;;8.80;99.00;;;;;;4998597;28;20725;-69
2023/12/14 00:28:28;;;;;;;82.40;36.50;;;8.80;99.00;;;;;;4997356;28;20022;-70
2023/12/14 00:30:54;;;;;;;77.93;37.10;;;8.90;99.00;;;;;;4983060;28;20099;-70
2023/12/14 00:33:19;;;;;;;82.82;38.05;;;8.90;99.00;;;;;;5003782;28;20578;-70
2023/12/14 00:35:45;;;;;;;77.95;36.72;;;8.90;99.00;;;;;;4996170;28;20129;-70
2023/12/14 00:38:11;;;;;;;83.43;37.08;;;8.90;99.00;;;;;;4995425;28;20085;-70
2023/12/14 00:40:36;;;;;;;73.88;35.50;;;8.90;98.90;;;;;;4997567;28;20465;-70
2023/12/14 00:43:02;;;;;;;79.05;36.05;;;8.80;98.90;;;;;;4999813;28;20030;-70
2023/12/14 00:45:27;;;;;;;78.68;34.28;;;8.80;98.90;;;;;;5000975;28;20453;-70
2023/12/14 00:47:53;;;;;;;76.55;36.38;;;8.70;98.90;;;;;;5008637;28;20076;-71
2023/12/14 00:50:18;;;;;;;77.03;38.45;;;8.70;98.90;;;;;;4983370;28;20722;-70
2023/12/14 00:52:44;;;;;;;72.38;35.20;;;8.70;98.90;;;;;;4998365;28;20021;-70
2023/12/14 00:55:10;;;;;;;72.22;35.00;;;8.70;98.90;;;;;;4998215;28;20042;-71
2023/12/14 00:57:35;;;;;;;71.70;34.05;;;8.60;98.90;;;;;;5004597;28;20105;-71
2023/12/14 01:00:01;;;;;;;64.28;31.63;;;8.60;98.90;;;;;;4992613;28;20656;-71
2023/12/14 01:02:26;;;;;;;59.65;29.73;;;8.60;99.10;;;;;;5004520;28;20049;-72
2023/12/14 01:04:52;;;;;;;64.57;30.75;;;8.60;99.00;;;;;;4995054;28;20831;-70
2023/12/14 01:07:17;;;;;;;60.60;27.17;;;8.50;99.10;;;;;;4997862;28;20133;-71
2023/12/14 01:09:43;;;;;;;52.03;26.27;;;8.50;99.00;;;;;;5002640;28;20030;-70
2023/12/14 01:12:08;;;;;;;56.17;27.40;;;8.40;99.00;;;;;;5006149;28;20996;-71
2023/12/14 01:14:34;;;;;;;47.15;24.73;;;8.40;99.00;;;;;;4998898;28;20022;-70
2023/12/14 01:17:00;;;;;;;42.20;23.80;;;8.30;98.70;;;;;;4999538;28;20488;-69
2023/12/14 01:19:26;;;;;;;41.33;22.15;;;8.30;98.70;;;;;;5000850;28;20232;-69
2023/12/14 01:21:52;;;;;;;43.03;22.92;;;8.20;98.50;;;;;;5002492;28;20713;-70
2023/12/14 01:24:17;;;;;;;39.10;22.67;;;8.10;98.50;;;;;;5002693;28;20026;-70
2023/12/14 01:26:43;;;;;;;36.85;21.30;;;8.10;98.40;;;;;;4996681;28;20057;-69
2023/12/14 01:29:08;;;;;;;33.83;21.23;;;8.10;98.40;;;;;;5005145;28;20021;-70
2023/12/14 01:31:34;;;;;;;33.22;21.75;;;8.10;98.30;;;;;;5005748;28;20386;-69
2023/12/14 01:34:00;;;;;;;38.20;23.00;;;8.10;98.10;;;;;;4997908;28;20037;-72
2023/12/14 01:36:26;;;;;;;38.72;24.48;;;8.00;98.10;;;;;;5001050;28;20033;-70
2023/12/14 01:38:52;;;;;;;41.03;25.10;;;8.00;98.00;;;;;;4996752;28;20040;-72
2023/12/14 01:41:18;;;;;;;39.28;24.85;;;8.00;98.00;;;;;;4996231;28;20046;-69
2023/12/14 01:43:44;;;;;;;39.13;24.83;;;8.00;98.00;;;;;;5009070;28;20030;-69
2023/12/14 01:46:10;;;;;;;37.92;24.65;;;8.00;97.90;;;;;;4975461;28;20429;-72
2023/12/14 01:48:36;;;;;;;32.88;23.35;;;7.80;97.80;;;;;;5001980;28;20033;-70
2023/12/14 01:51:02;;;;;;;35.97;22.90;;;7.90;97.70;;;;;;4990153;28;20513;-72
2023/12/14 01:53:28;;;;;;;35.00;21.85;;;7.90;97.60;;;;;;4981132;28;20497;-69
2023/12/14 01:55:54;;;;;;;29.10;20.67;;;7.80;97.30;;;;;;4993436;28;20077;-69
2023/12/14 01:58:20;;;;;;;28.98;19.70;;;7.80;97.10;;;;;;4990766;28;20045;-70
2023/12/14 02:00:58;;;;;;;26.83;19.55;;;7.80;97.10;;;;;;4998085;28;20038;-73
2023/12/14 02:03:24;;;;;;;26.85;17.40;;;7.70;96.80;;;;;;5001905;28;20084;-69
2023/12/14 02:05:50;;;;;;;22.38;15.93;;;7.70;96.60;;;;;;5000364;28;20046;-70
2023/12/14 02:08:15;;;;;;;18.52;13.27;;;7.70;96.30;;;;;;4998015;28;20545;-71
2023/12/14 02:10:41;;;;;;;19.88;13.65;;;7.60;95.80;;;;;;4981861;28;20129;-69
2023/12/14 02:13:07;;;;;;;19.60;13.60;;;7.60;95.70;;;;;;4991273;28;20042;-69
2023/12/14 02:15:33;;;;;;;24.77;13.90;;;7.60;95.50;;;;;;4997402;28;20088;-71
2023/12/14 02:17:58;;;;;;;24.20;13.40;;;7.60;95.50;;;;;;4993229;28;20018;-70
2023/12/14 02:20:24;;;;;;;20.55;12.95;;;7.60;95.50;;;;;;4999994;28;20038;-71
2023/12/14 02:22:56;;;;;;;25.38;14.50;;;7.60;95.50;;;;;;4998580;28;20487;-70
2023/12/14 02:25:23;;;;;;;23.05;13.75;;;7.60;95.40;;;;;;4999598;28;20030;-70
2023/12/14 02:27:51;;;;;;;18.42;12.50;;;7.60;95.50;;;;;;4989494;28;20025;-71
2023/12/14 02:30:17;;;;;;;19.88;13.38;;;7.60;95.40;;;;;;4998432;28;20859;-72
2023/12/14 02:32:43;;;;;;;23.52;14.02;;;7.70;95.40;;;;;;4997136;28;20029;-70
2023/12/14 02:35:09;;;;;;;22.08;12.50;;;7.70;95.50;;;;;;4997446;28;20483;-71
2023/12/14 02:37:40;;;;;;;22.58;14.05;;;7.60;95.40;;;;;;4982897;28;20022;-70
2023/12/14 02:40:06;;;;;;;25.70;14.50;;;7.60;95.50;;;;;;4997521;28;20053;-70
2023/12/14 02:42:32;;;;;;;19.55;13.20;;;7.60;95.60;;;;;;4997043;28;20034;-70
2023/12/14 02:44:59;;;;;;;17.75;12.80;;;7.60;95.40;;;;;;4997674;28;20040;-70
2023/12/14 02:47:24;;;;;;;20.27;11.88;;;7.50;95.10;;;;;;4991813;28;20033;-71
2023/12/14 02:49:50;;;;;;;21.58;11.73;;;7.50;94.90;;;;;;5000674;28;20387;-71
2023/12/14 02:52:16;;;;;;;21.80;12.52;;;7.50;94.90;;;;;;5003339;28;20524;-70
2023/12/14 02:54:41;;;;;;;18.70;11.05;;;7.50;94.70;;;;;;5002607;28;20069;-70
2023/12/14 02:57:07;;;;;;;17.02;11.30;;;7.50;94.60;;;;;;5001105;28;20068;-70
2023/12/14 02:59:33;;;;;;;18.10;10.88;;;7.60;94.70;;;;;;4996487;28;20498;-70
2023/12/14 03:01:58;;;;;;;16.90;11.75;;;7.50;94.50;;;;;;4983026;28;20026;-70
2023/12/14 03:04:24;;;;;;;17.35;11.88;;;7.50;94.50;;;;;;4998133;28;20030;-70
2023/12/14 03:06:50;;;;;;;19.35;11.52;;;7.50;94.50;;;;;;4999418;28;20054;-69
2023/12/14 03:09:15;;;;;;;22.50;11.27;;;7.50;94.50;;;;;;4982186;28;20021;-70
2023/12/14 03:11:41;;;;;;;17.75;11.90;;;7.50;94.50;;;;;;4996317;28;20548;-72
2023/12/14 03:14:06;;;;;;;19.67;11.32;;;7.60;94.50;;;;;;4997562;28;20088;-71
2023/12/14 03:16:32;;;;;;;18.88;11.45;;;7.50;94.50;;;;;;4992763;28;20407;-71
2023/12/14 03:18:58;;;;;;;18.60;10.40;;;7.50;94.50;;;;;;5001512;28;20052;-70
2023/12/14 03:21:23;;;;;;;18.98;10.15;;;7.50;94.30;;;;;;4994729;28;20065;-71
2023/12/14 03:23:52;;;;;;;15.90;10.13;;;7.50;94.30;;;;;;4980202;28;20882;-71
2023/12/14 03:26:18;;;;;;;15.63;10.52;;;7.50;94.10;;;;;;5000190;28;20034;-71
2023/12/14 03:28:43;;;;;;;15.90;9.18;;;7.40;94.10;;;;;;4997614;28;20061;-72
2023/12/14 03:31:12;;;;;;;16.73;9.63;;;7.50;94.10;;;;;;4996930;28;20101;-69
2023/12/14 03:33:39;;;;;;;15.15;9.48;;;7.50;94.00;;;;;;4977888;28;20387;-70
2023/12/14 03:36:05;;;;;;;15.50;8.20;;;7.50;93.80;;;;;;5005949;28;20403;-71
2023/12/14 03:38:31;;;;;;;16.67;8.45;;;7.50;93.60;;;;;;4995439;28;20018;-70
2023/12/14 03:40:57;;;;;;;15.68;8.68;;;7.40;93.50;;;;;;4981849;28;20149;-70
2023/12/14 03:43:23;;;;;;;17.27;8.85;;;7.40;93.60;;;;;;4998942;28;20116;-70
2023/12/14 03:45:48;;;;;;;15.82;7.38;;;7.40;93.50;;;;;;4995043;28;20109;-71
2023/12/14 03:48:14;;;;;;;14.30;8.10;;;7.40;93.60;;;;;;4999368;28;20029;-70
2023/12/14 03:50:40;;;;;;;14.88;8.30;;;7.40;93.60;;;;;;4991088;28;20129;-69
2023/12/14 03:53:06;;;;;;;14.40;8.13;;;7.30;93.70;;;;;;4979352;28;20423;-70
2023/12/14 03:55:32;;;;;;;14.30;7.68;;;7.40;93.80;;;;;;4997290;28;20121;-71
2023/12/14 03:57:58;;;;;;;14.43;8.15;;;7.30;93.70;;;;;;5001672;28;20552;-71
2023/12/14 04:00:23;;;;;;;15.90;8.68;;;7.30;93.80;;;;;;4977270;28;20034;-69
2023/12/14 04:02:49;;;;;;;13.38;7.68;;;7.40;93.80;;;;;;5009709;28;20033;-70
2023/12/14 04:05:15;;;;;;;14.52;8.68;;;7.30;93.60;;;;;;4995994;28;20185;-71
2023/12/14 04:07:40;;;;;;;17.08;8.45;;;7.30;93.80;;;;;;4981433;28;20466;-72
2023/12/14 04:10:08;;;;;;;17.20;8.30;;;7.30;93.70;;;;;;4999564;28;20431;-70
2023/12/14 04:12:38;;;;;;;16.25;7.97;;;7.30;93.70;;;;;;4995802;28;20026;-70
2023/12/14 04:15:04;;;;;;;16.55;7.47;;;7.30;93.70;;;;;;4997769;28;20041;-72
2023/12/14 04:17:34;;;;;;;14.73;8.30;;;7.40;93.70;;;;;;5001432;28;20054;-70
2023/12/14 04:20:00;;;;;;;15.90;8.23;;;7.30;93.60;;;;;;4999363;28;20048;-70
2023/12/14 04:22:26;;;;;;;15.48;7.65;;;7.30;93.80;;;;;;5000133;28;20526;-72
2023/12/14 04:24:52;;;;;;;15.55;8.07;;;7.30;93.80;;;;;;4978220;28;20030;-71
2023/12/14 04:27:18;;;;;;;16.65;8.63;;;7.40;93.70;;;;;;5003407;28;20033;-72
2023/12/14 04:29:43;;;;;;;16.42;8.40;;;7.40;93.60;;;;;;4981374;28;20365;-73
2023/12/14 04:32:09;;;;;;;15.30;8.40;;;7.40;93.60;;;;;;5000068;28;20385;-73
2023/12/14 04:34:35;;;;;;;16.08;8.40;;;7.30;93.70;;;;;;5000963;28;20112;-71
2023/12/14 04:37:01;;;;;;;15.82;7.68;;;7.40;93.80;;;;;;4985652;28;20319;-74
2023/12/14 04:39:26;;;;;;;16.95;7.85;;;7.40;93.90;;;;;;4995252;28;20026;-71
2023/12/14 04:41:53;;;;;;;17.20;8.52;;;7.40;93.90;;;;;;4999532;28;20034;-73
2023/12/14 04:44:19;;;;;;;18.17;7.75;;;7.40;93.90;;;;;;4996051;28;20022;-71
2023/12/14 04:46:44;;;;;;;12.90;7.18;;;7.40;94.00;;;;;;5002928;28;20037;-71
2023/12/14 04:49:10;;;;;;;14.23;8.38;;;7.40;93.90;;;;;;4997154;28;20026;-73
2023/12/14 04:51:36;;;;;;;17.55;8.25;;;7.40;94.00;;;;;;5002100;28;20461;-71
2023/12/14 04:54:02;;;;;;;15.32;8.68;;;7.40;94.10;;;;;;4983927;28;20033;-73
2023/12/14 04:56:28;;;;;;;14.65;7.40;;;7.40;94.10;;;;;;4997345;28;20041;-71
2023/12/14 04:58:53;;;;;;;18.25;7.90;;;7.40;94.20;;;;;;4983918;28;20022;-71
2023/12/14 05:01:19;;;;;;;16.45;7.78;;;7.30;94.20;;;;;;5004421;28;20026;-72
2023/12/14 05:03:45;;;;;;;20.92;7.40;;;7.40;94.20;;;;;;5003446;28;20034;-71
2023/12/14 05:06:10;;;;;;;18.70;7.72;;;7.30;93.60;;;;;;5002190;28;20450;-72
2023/12/14 05:08:36;;;;;;;15.18;7.50;;;7.30;93.40;;;;;;4999272;28;20026;-71
2023/12/14 05:11:02;;;;;;;21.35;7.70;;;7.40;93.30;;;;;;4984057;28;20454;-71
2023/12/14 05:13:28;;;;;;;16.08;7.60;;;7.30;93.10;;;;;;4984346;28;20026;-72
2023/12/14 05:15:53;;;;;;;13.23;7.28;;;7.30;93.00;;;;;;5000959;28;20034;-71
2023/12/14 05:18:19;;;;;;;12.98;7.35;;;7.40;93.00;;;;;;4992263;28;20557;-71
2023/12/14 05:20:45;;;;;;;14.35;7.70;;;7.40;92.80;;;;;;5002838;28;20425;-72
2023/12/14 05:23:11;;;;;;;17.05;7.57;;;7.40;92.80;;;;;;4998558;28;20050;-71
2023/12/14 05:25:37;;;;;;;16.00;7.68;;;7.40;92.90;;;;;;4982912;28;20045;-71
2023/12/14 05:28:03;;;;;;;16.67;7.53;;;7.40;93.00;;;;;;4980709;28;20557;-71
2023/12/14 05:30:29;;;;;;;20.10;8.02;;;7.40;93.10;;;;;;4995072;28;20063;-71
2023/12/14 05:32:55;;;;;;;14.88;8.32;;;7.40;93.20;;;;;;4997037;28;20497;-69
2023/12/14 05:35:21;;;;;;;17.75;7.80;;;7.40;93.30;;;;;;4995521;28;20073;-71
2023/12/14 05:37:47;;;;;;;15.75;8.18;;;7.40;93.40;;;;;;4998016;28;20250;-71
2023/12/14 05:40:12;;;;;;;18.45;7.30;;;7.40;93.50;;;;;;5000742;28;20038;-71
2023/12/14 05:42:38;;;;;;;14.32;7.88;;;7.50;93.60;;;;;;4995851;28;20045;-70
2023/12/14 05:45:05;;;;;;;13.77;7.15;;;7.50;93.60;;;;;;4993660;28;20607;-71
2023/12/14 05:47:32;;;;;;;15.63;7.13;;;7.50;93.70;;;;;;4996812;28;20991;-70
2023/12/14 05:49:59;;;;;;;12.75;7.05;;;7.50;93.80;;;;;;4984007;28;20399;-69
2023/12/14 05:52:24;;;;;;;12.98;6.88;;;7.40;93.80;;;;;;5000387;28;20040;-70
2023/12/14 05:54:50;;;;;;;15.05;8.20;;;7.50;93.90;;;;;;5001284;28;20026;-72
2023/12/14 05:57:16;;;;;;;14.15;7.50;;;7.40;94.00;;;;;;4981985;28;20030;-70
2023/12/14 05:59:41;;;;;;;14.55;7.85;;;7.40;94.00;;;;;;4968398;28;20045;-71
2023/12/14 06:02:07;;;;;;;16.02;8.52;;;7.40;94.00;;;;;;4999054;28;20440;-70
2023/12/14 06:04:33;;;;;;;17.67;8.80;;;7.50;93.90;;;;;;4980073;28;20493;-70
2023/12/14 06:06:59;;;;;;;15.15;9.30;;;7.40;93.90;;;;;;4998537;28;20042;-70
2023/12/14 06:09:32;;;;;;;19.15;8.98;;;7.40;93.90;;;;;;5001072;28;20025;-70
2023/12/14 06:12:00;;;;;;;17.83;9.50;;;7.40;93.70;;;;;;4996363;28;20056;-70
2023/12/14 06:14:26;;;;;;;14.18;8.23;;;7.40;93.70;;;;;;4998145;28;20030;-71
2023/12/14 06:16:51;;;;;;;17.40;7.88;;;7.40;93.70;;;;;;4999224;28;20402;-70
2023/12/14 06:19:17;;;;;;;17.45;9.18;;;7.40;93.60;;;;;;4999138;28;20057;-71
2023/12/14 06:21:42;;;;;;;21.42;10.95;;;7.50;93.60;;;;;;5002068;28;20057;-71
2023/12/14 06:24:08;;;;;;;18.55;11.02;;;7.40;93.50;;;;;;4997929;28;20251;-72
2023/12/14 06:26:33;;;;;;;23.55;14.38;;;7.40;93.50;;;;;;4998070;28;20032;-71
2023/12/14 06:28:59;;;;;;;22.13;12.32;;;7.40;93.50;;;;;;4981968;28;20545;-70
2023/12/14 06:31:25;;;;;;;20.40;11.63;;;7.40;93.50;;;;;;4998097;28;20061;-70
2023/12/14 06:33:50;;;;;;;23.15;11.93;;;7.50;93.50;;;;;;4997031;28;20022;-72
2023/12/14 06:36:20;;;;;;;15.50;10.50;;;7.50;93.40;;;;;;4987497;28;20045;-70
2023/12/14 06:38:45;;;;;;;15.07;10.60;;;7.40;93.50;;;;;;4991926;28;20026;-72
2023/12/14 06:41:29;;;;;;;17.80;10.27;;;7.40;93.60;;;;;;5000066;28;20463;-72
2023/12/14 06:43:55;;;;;;;15.82;10.13;;;7.40;93.80;;;;;;4999980;28;20041;-71
2023/12/14 06:46:21;;;;;;;17.65;10.43;;;7.40;93.80;;;;;;4989557;28;20031;-70
2023/12/14 06:48:47;;;;;;;16.08;10.65;;;7.40;93.80;;;;;;4997701;28;20042;-72
2023/12/14 06:51:13;;;;;;;17.02;10.00;;;7.30;93.90;;;;;;4992563;28;20038;-72
2023/12/14 06:53:43;;;;;;;18.00;11.73;;;7.40;94.00;;;;;;5000475;28;20065;-70
2023/12/14 06:56:10;;;;;;;16.25;11.32;;;7.40;93.80;;;;;;4997093;28;20049;-71
2023/12/14 06:58:40;;;;;;;19.67;10.68;;;7.30;93.80;;;;;;4978042;28;20078;-72
2023/12/14 07:01:06;;;;;;;16.25;9.38;;;7.30;93.80;;;;;;4998369;28;20143;-71
2023/12/14 07:03:32;;;;;;;16.50;9.52;;;7.30;93.90;;;;;;4991874;28;20037;-73
2023/12/14 07:05:58;;;;;;;15.10;9.95;;;7.30;93.80;;;;;;4999208;28;20079;-72
2023/12/14 07:08:24;;;;;;;17.88;10.07;;;7.30;93.70;;;;;;4997293;28;20045;-71
2023/12/14 07:10:50;;;;;;;16.08;9.73;;;7.30;93.80;;;;;;4998852;28;20041;-71
2023/12/14 07:13:16;;;;;;;15.57;9.85;;;7.30;93.80;;;;;;4997457;28;20030;-72
2023/12/14 07:15:41;;;;;;;16.83;10.60;;;7.30;93.90;;;;;;4999446;28;20116;-75
2023/12/14 07:18:07;;;;;;;16.02;10.30;;;7.30;93.90;;;;;;4988395;28;20034;-70
2023/12/14 07:20:33;;;;;;;15.40;10.05;;;7.30;93.90;;;;;;4992646;28;20030;-70
2023/12/14 07:22:59;;;;;;;17.05;9.80;;;7.30;93.90;;;;;;4999420;28;20050;-69
2023/12/14 07:25:24;;;;;;;17.10;10.48;;;7.20;94.00;;;;;;4999019;28;20026;-71
2023/12/14 07:27:50;;;;;;;17.00;10.60;;;7.20;94.00;;;;;;4980271;28;20029;-70
2023/12/14 07:30:16;;;;;;;15.32;10.02;;;7.20;94.10;;;;;;4995913;28;20069;-68
2023/12/14 07:32:42;;;;;;;15.93;9.75;;;7.20;94.10;;;;;;4996695;28;20591;-68
2023/12/14 07:35:08;;;;;;;16.52;10.05;;;7.30;94.20;;;;;;4980143;28;20058;-69
2023/12/14 07:37:34;;;;;;;14.13;9.52;;;7.30;94.20;;;;;;4990605;28;20117;-69
2023/12/14 07:40:00;;;;;;;18.17;10.38;;;7.40;94.00;;;;;;4991753;28;20117;-69
2023/12/14 07:42:25;;;;;;;19.48;10.57;;;7.30;94.00;;;;;;4973893;28;20074;-68
2023/12/14 07:44:51;;;;;;;17.67;11.25;;;7.30;93.90;;;;;;4997656;28;20429;-68
2023/12/14 07:47:17;;;;;;;17.10;10.15;;;7.30;94.00;;;;;;4974396;28;20025;-68
2023/12/14 07:49:43;;;;;;;17.40;10.18;;;7.30;94.00;;;;;;4994093;28;20032;-68
2023/12/14 07:52:09;;;;;;;21.60;11.10;;;7.30;93.90;;;;;;5000181;28;20184;-68
2023/12/14 07:54:35;;;;;;;21.40;11.38;;;7.30;93.90;;;;;;4998950;28;20502;-68
2023/12/14 07:57:01;;;;;;;18.17;11.18;;;7.30;93.80;;;;;;4997573;28;20095;-69
2023/12/14 07:59:26;;;;;;;18.83;11.27;;;7.30;93.80;;;;;;4999202;28;20502;-68
2023/12/14 08:01:52;;;;;;;16.98;9.82;;;7.30;93.80;;;;;;4998270;28;20034;-69
2023/12/14 08:04:18;;;;;;;17.88;10.25;;;7.30;93.80;;;;;;4998514;28;20038;-68
2023/12/14 08:06:43;;;;;;;14.88;9.80;;;7.40;93.80;;;;;;4995006;28;20149;-68
2023/12/14 08:09:10;;;;;;;22.55;10.88;;;7.40;93.70;;;;;;4997750;28;20034;-69
2023/12/14 08:11:35;;;;;;;17.50;12.05;;;7.40;93.80;;;;;;4995579;28;20038;-68
2023/12/14 08:14:02;;;;;;;22.00;13.90;;;7.40;93.60;;;;;;4996434;28;20138;-69
2023/12/14 08:16:28;;;;;;;21.33;12.98;;;7.50;93.60;;;;;;5004791;28;20135;-73
2023/12/14 08:18:54;;;;;;;25.52;16.50;;;7.50;93.60;;;;;;4977655;28;20030;-69
2023/12/14 08:21:19;;;;;;;18.15;11.00;;;7.50;93.60;;;;;;4991976;28;20135;-68
2023/12/14 08:23:45;;;;;;;18.75;12.07;;;7.50;93.60;;;;;;4998662;28;20049;-69
2023/12/14 08:26:12;;;;;;;18.67;11.25;;;7.50;93.70;;;;;;4998352;28;20026;-68
2023/12/14 08:28:39;;;;;;;19.67;11.55;;;7.50;93.80;;;;;;4990190;28;20033;-69
2023/12/14 08:31:05;;;;;;;16.23;10.05;;;7.40;93.90;;;;;;4979697;28;20563;-69
2023/12/14 08:33:30;;;;;;;19.02;11.65;;;7.40;94.10;;;;;;4996510;28;20026;-69
2023/12/14 08:35:56;;;;;;;19.05;11.55;;;7.50;94.10;;;;;;4993897;28;20566;-69
2023/12/14 08:38:22;;;;;;;20.85;11.98;;;7.50;94.20;;;;;;4997771;28;20061;-69
2023/12/14 08:40:48;;;;;;;22.60;12.98;;;7.50;94.30;;;;;;4995535;28;20065;-71
2023/12/14 08:43:14;;;;;;;21.10;12.60;;;7.50;94.30;;;;;;4997661;28;20080;-72
2023/12/14 08:45:39;;;;;;;19.38;11.65;;;7.50;94.50;;;;;;4997603;28;20029;-68
2023/12/14 08:48:05;;;;;;;18.80;11.65;;;7.50;94.80;;;;;;4978909;28;20457;-69
2023/12/14 08:50:31;;;;;;;21.60;12.50;;;7.50;94.90;;;;;;4994699;28;20042;-69
2023/12/14 08:52:59;;;;;;;21.80;12.38;;;7.50;94.90;;;;;;4974738;28;20049;-68
2023/12/14 08:55:26;;;;;;;26.15;12.32;;;7.50;95.00;;;;;;4993938;28;20044;-69
2023/12/14 08:57:52;;;;;;;21.52;12.55;;;7.50;95.10;;;;;;4996353;28;20232;-68
2023/12/14 09:00:18;;;;;;;21.23;12.60;;;7.60;95.20;;;;;;4996550;28;20064;-68
2023/12/14 09:02:45;;;;;;;23.10;14.05;;;7.50;95.20;;;;;;4995804;28;20474;-71
2023/12/14 09:05:13;;;;;;;23.10;14.43;;;7.60;95.30;;;;;;4997779;28;20475;-69
2023/12/14 09:07:38;;;;;;;33.33;14.88;;;7.60;95.40;;;;;;4998622;28;20029;-70
2023/12/14 09:10:05;;;;;;;25.08;13.93;;;7.70;95.40;;;;;;4991577;28;20060;-70
2023/12/14 09:12:30;;;;;;;23.98;14.10;;;7.70;95.30;;;;;;4996085;28;20134;-70
2023/12/14 09:14:56;;;;;;;24.35;13.38;;;7.70;95.30;;;;;;4991666;28;20046;-69
2023/12/14 09:17:21;;;;;;;26.40;14.73;;;7.80;95.30;;;;;;4979003;28;20026;-69
2023/12/14 09:19:47;;;;;;;24.20;13.60;;;7.90;95.20;;;;;;4979426;28;20532;-71
2023/12/14 09:22:13;;;;;;;24.50;14.27;;;7.90;95.00;;;;;;4979959;28;20038;-70
2023/12/14 09:24:38;;;;;;;22.42;12.80;;;7.90;95.00;;;;;;4995534;28;20214;-69
2023/12/14 09:27:04;;;;;;;26.15;13.95;;;7.90;95.10;;;;;;5000215;28;20053;-69
2023/12/14 09:29:30;;;;;;;22.95;12.60;;;7.90;95.10;;;;;;4997813;28;20454;-71
2023/12/14 09:31:55;;;;;;;22.80;13.43;;;7.90;95.20;;;;;;5000216;28;20073;-69
2023/12/14 09:34:21;;;;;;;23.80;13.82;;;8.00;95.20;;;;;;4998026;28;20083;-70
2023/12/14 09:36:47;;;;;;;26.25;12.85;;;8.00;95.20;;;;;;4998973;28;20426;-70
2023/12/14 09:39:13;;;;;;;23.67;13.65;;;7.90;95.10;;;;;;4995784;28;20421;-69
2023/12/14 09:41:39;;;;;;;22.00;12.52;;;7.90;95.30;;;;;;5000115;28;20041;-70
2023/12/14 09:44:06;;;;;;;22.70;12.50;;;7.90;95.50;;;;;;5001144;28;20028;-69
2023/12/14 09:46:35;;;;;;;23.23;12.70;;;7.90;95.60;;;;;;5000131;28;20140;-70
2023/12/14 09:49:02;;;;;;;25.75;14.80;;;7.90;95.60;;;;;;5000593;28;20065;-69
2023/12/14 09:51:28;;;;;;;30.42;15.48;;;7.90;95.70;;;;;;5000276;28;20049;-68
2023/12/14 09:53:58;;;;;;;20.35;14.50;;;7.90;95.80;;;;;;4974988;28;20027;-70
2023/12/14 09:56:27;;;;;;;21.88;14.07;;;7.90;95.90;;;;;;4995848;28;20376;-71
2023/12/14 09:58:53;;;;;;;21.92;13.75;;;7.90;96.00;;;;;;4982832;28;20030;-70
2023/12/14 10:01:24;;;;;;;22.10;13.05;;;8.00;96.00;;;;;;5006120;28;20057;-72
2023/12/14 10:03:50;;;;;;;25.65;13.70;;;8.00;96.00;;;;;;4996117;28;20319;-71
2023/12/14 10:06:17;;;;;;;23.65;13.65;;;8.10;96.00;;;;;;4999162;28;20049;-70
2023/12/14 10:08:55;;;;;;;22.55;13.13;;;8.10;96.00;;;;;;4995569;28;20105;-69
2023/12/14 10:11:20;;;;;;;18.40;12.93;;;8.10;96.00;;;;;;4996753;28;20520;-72
2023/12/14 10:13:46;;;;;;;23.92;14.23;;;8.10;96.00;;;;;;5000587;28;20026;-71
2023/12/14 10:16:12;;;;;;;28.85;15.57;;;8.10;95.90;;;;;;4999566;28;20077;-71
2023/12/14 10:18:38;;;;;;;23.70;15.45;;;8.10;95.90;;;;;;4998720;28;20441;-70
2023/12/14 10:21:07;;;;;;;25.52;15.52;;;8.10;96.00;;;;;;4995679;28;20042;-71
2023/12/14 10:23:34;;;;;;;29.40;16.38;;;8.10;96.00;;;;;;4998493;28;20210;-69
2023/12/14 10:26:00;;;;;;;27.98;15.55;;;8.10;96.00;;;;;;4981208;28;20687;-69
2023/12/14 10:28:27;;;;;;;27.10;16.00;;;8.10;96.00;;;;;;4998439;28;20018;-70
2023/12/14 10:30:52;;;;;;;27.38;16.85;;;8.10;96.10;;;;;;4982333;28;20048;-70
2023/12/14 10:33:18;;;;;;;24.30;15.57;;;8.10;96.10;;;;;;5002170;28;20034;-69
2023/12/14 10:35:46;;;;;;;27.80;16.42;;;8.20;96.30;;;;;;4992211;28;20045;-69
2023/12/14 10:38:12;;;;;;;24.17;14.23;;;8.20;96.30;;;;;;4997821;28;20178;-68
2023/12/14 10:40:41;;;;;;;29.38;14.77;;;8.30;96.30;;;;;;4994469;28;20722;-69
2023/12/14 10:43:06;;;;;;;25.77;13.75;;;8.30;96.30;;;;;;5006950;28;20034;-70
2023/12/14 10:45:33;;;;;;;27.48;15.13;;;8.30;96.20;;;;;;4999023;28;20293;-70
2023/12/14 10:48:00;;;;;;;18.92;12.98;;;8.40;96.40;;;;;;4983785;28;20030;-69
2023/12/14 10:50:30;;;;;;;27.15;14.00;;;8.40;96.30;;;;;;4984347;28;20080;-69
2023/12/14 10:52:57;;;;;;;23.33;14.15;;;8.50;96.30;;;;;;5000661;28;20127;-69
2023/12/14 10:55:32;;;;;;;19.38;12.80;;;8.50;96.20;;;;;;4988899;28;20066;-69
2023/12/14 10:57:58;;;;;;;21.98;12.70;;;8.60;96.10;;;;;;4985723;28;20410;-71
2023/12/14 11:00:24;;;;;;;25.27;12.65;;;8.60;95.90;;;;;;4993207;28;20855;-69
2023/12/14 11:02:52;;;;;;;22.92;13.05;;;8.60;95.90;;;;;;5000607;28;20022;-69
2023/12/14 11:05:22;;;;;;;20.48;12.63;;;8.60;96.00;;;;;;5002019;28;20030;-69
2023/12/14 11:08:03;;;;;;;21.83;13.52;;;8.60;96.00;;;;;;4982788;28;20018;-69
2023/12/14 11:10:40;;;;;;;21.73;12.18;;;8.60;96.00;;;;;;5004298;28;20512;-70
2023/12/14 11:13:10;;;;;;;20.13;12.35;;;8.60;95.90;;;;;;5004174;28;20382;-71
2023/12/14 11:15:37;;;;;;;18.33;12.38;;;8.60;96.00;;;;;;5001289;28;20144;-69
2023/12/14 11:18:21;;;;;;;20.38;12.93;;;8.60;96.00;;;;;;4998542;28;20045;-69
2023/12/14 11:20:47;;;;;;;22.45;13.35;;;8.60;96.10;;;;;;4998335;28;20764;-68
2023/12/14 11:23:14;;;;;;;24.00;12.63;;;8.60;96.00;;;;;;4998277;28;20042;-69
2023/12/14 11:25:40;;;;;;;21.17;12.00;;;8.60;96.00;;;;;;4996867;28;20042;-69
2023/12/14 11:28:10;;;;;;;24.25;12.73;;;8.70;96.00;;;;;;4978240;28;20370;-69
2023/12/14 11:30:37;;;;;;;19.98;12.98;;;8.70;96.00;;;;;;4977334;28;20565;-69
2023/12/14 11:33:03;;;;;;;21.73;12.30;;;8.60;96.10;;;;;;4995450;28;20029;-68
2023/12/14 11:35:29;;;;;;;21.77;13.05;;;8.60;96.10;;;;;;4995505;28;20056;-68
2023/12/14 11:37:59;;;;;;;21.27;12.60;;;8.60;96.20;;;;;;4999673;28;20088;-70
2023/12/14 11:40:26;;;;;;;22.35;12.02;;;8.60;96.20;;;;;;4974018;28;20149;-69
2023/12/14 11:43:01;;;;;;;16.92;9.68;;;8.50;96.20;;;;;;4994140;28;20024;-71
2023/12/14 11:45:27;;;;;;;19.95;10.73;;;8.50;96.20;;;;;;4995522;28;20140;-70
2023/12/14 11:47:53;;;;;;;18.13;8.65;;;8.50;96.20;;;;;;4996824;28;20026;-70
2023/12/14 11:50:20;;;;;;;16.40;8.15;;;8.30;96.10;;;;;;4995643;28;20316;-70
2023/12/14 11:52:46;;;;;;;17.13;8.77;;;8.30;96.20;;;;;;4998452;28;20474;-69
2023/12/14 11:55:11;;;;;;;19.20;10.07;;;8.40;96.20;;;;;;4995887;28;20053;-70
2023/12/14 11:57:37;;;;;;;17.80;9.20;;;8.40;96.20;;;;;;4996608;28;20022;-69
2023/12/14 12:00:04;;;;;;;18.08;9.52;;;8.50;96.10;;;;;;4995916;28;20042;-69
2023/12/14 12:02:30;;;;;;;17.95;8.23;;;8.50;96.10;;;;;;4997691;28;20026;-71
2023/12/14 12:04:55;;;;;;;16.58;8.55;;;8.50;95.80;;;;;;4993664;28;20060;-69
2023/12/14 12:07:21;;;;;;;15.88;7.53;;;8.60;95.60;;;;;;4979276;28;20038;-69
2023/12/14 12:09:47;;;;;;;14.48;7.10;;;8.60;95.20;;;;;;4995624;28;20478;-68
2023/12/14 12:12:12;;;;;;;11.10;4.70;;;8.60;94.60;;;;;;4996153;28;20022;-71
2023/12/14 12:14:40;;;;;;;15.05;5.28;;;8.60;93.90;;;;;;4997392;28;20076;-70
2023/12/14 12:17:06;;;;;;;9.15;4.55;;;8.50;93.00;;;;;;4997006;28;20037;-69
2023/12/14 12:19:36;;;;;;;10.63;4.70;;;8.60;92.40;;;;;;4976629;28;20030;-71
2023/12/14 12:22:02;;;;;;;12.82;4.72;;;8.70;92.50;;;;;;4996616;28;20148;-70
2023/12/14 12:24:28;;;;;;;14.35;4.63;;;8.70;92.10;;;;;;4978457;28;20053;-72
2023/12/14 12:26:55;;;;;;;11.73;4.70;;;8.60;91.80;;;;;;4976887;28;20478;-73
2023/12/14 12:29:20;;;;;;;10.35;3.63;;;8.60;91.90;;;;;;4994100;28;20022;-70
2023/12/14 12:31:46;;;;;;;11.45;4.43;;;8.60;91.40;;;;;;4996602;28;20562;-69
2023/12/14 12:34:12;;;;;;;11.63;4.82;;;8.60;91.50;;;;;;4996773;28;20343;-70
2023/12/14 12:36:38;;;;;;;13.25;4.85;;;8.70;91.80;;;;;;4998727;28;20049;-69